sensor_id;sensor_type;location;lat;lon;timestamp;pressure;altitude;pressure_sealevel;temperature;humidity
84051;BME280;74137;50.136;19.040;2024-02-21T00:41:32;99533.00;;;4.72;75.81
84051;BME280;74137;50.136;19.040;2024-02-21T01:55:28;99480.59;;;4.51;76.21
84051;BME280;74137;50.136;19.040;2024-02-21T04:14:02;99412.82;;;4.26;77.10
84051;BME280;74137;50.136;19.040;2024-02-21T05:45:48;99372.30;;;3.95;76.78
84051;BME280;74137;50.136;19.040;2024-02-21T09:06:05;99273.27;;;8.27;68.98
84051;BME280;74137;50.136;19.040;2024-02-21T10:04:28;99258.70;;;9.63;64.33
84051;BME280;74137;50.136;19.040;2024-02-21T11:17:53;99185.53;;;10.16;61.11
84051;BME280;74137;50.136;19.040;2024-02-21T13:42:23;99069.60;;;9.11;65.00
84051;BME280;74137;50.136;19.040;2024-02-21T15:22:38;98972.73;;;7.77;66.47
84051;BME280;74137;50.136;19.040;2024-02-21T17:15:42;98918.22;;;7.24;67.15
84051;BME280;74137;50.136;19.040;2024-02-21T17:18:11;98906.15;;;7.15;67.27
84051;BME280;74137;50.136;19.040;2024-02-21T17:20:39;98906.52;;;7.03;67.18
84051;BME280;74137;50.136;19.040;2024-02-21T17:23:08;98900.54;;;6.91;67.38
84051;BME280;74137;50.136;19.040;2024-02-21T17:25:37;98900.17;;;6.79;67.73
84051;BME280;74137;50.136;19.040;2024-02-21T17:28:08;98894.98;;;6.64;67.62
84051;BME280;74137;50.136;19.040;2024-02-21T17:30:39;98891.77;;;6.53;67.96
84051;BME280;74137;50.136;19.040;2024-02-21T17:33:15;98896.39;;;6.42;68.07
84051;BME280;74137;50.136;19.040;2024-02-21T17:35:44;98897.68;;;6.31;68.20
84051;BME280;74137;50.136;19.040;2024-02-21T17:38:16;98901.52;;;6.22;68.34
84051;BME280;74137;50.136;19.040;2024-02-21T17:40:49;98907.05;;;6.13;68.63
84051;BME280;74137;50.136;19.040;2024-02-21T17:43:21;98903.48;;;6.07;68.75
84051;BME280;74137;50.136;19.040;2024-02-21T17:45:50;98904.64;;;5.99;68.94
84051;BME280;74137;50.136;19.040;2024-02-21T17:48:19;98898.22;;;5.93;69.15
84051;BME280;74137;50.136;19.040;2024-02-21T17:50:50;98898.46;;;5.86;69.20
84051;BME280;74137;50.136;19.040;2024-02-21T17:53:31;98899.64;;;5.77;69.24
84051;BME280;74137;50.136;19.040;2024-02-21T17:56:01;98892.24;;;5.70;69.48
84051;BME280;74137;50.136;19.040;2024-02-21T17:58:37;98891.77;;;5.64;69.64
84051;BME280;74137;50.136;19.040;2024-02-21T18:01:08;98893.80;;;5.60;69.86
84051;BME280;74137;50.136;19.040;2024-02-21T18:03:36;98888.58;;;5.55;69.83
84051;BME280;74137;50.136;19.040;2024-02-21T18:06:04;98889.05;;;5.51;69.98
84051;BME280;74137;50.136;19.040;2024-02-21T18:08:33;98889.35;;;5.48;70.13
84051;BME280;74137;50.136;19.040;2024-02-21T18:11:03;98886.23;;;5.42;70.23
84051;BME280;74137;50.136;19.040;2024-02-21T18:13:31;98889.23;;;5.37;70.27
84051;BME280;74137;50.136;19.040;2024-02-21T18:16:03;98885.60;;;5.31;70.29
84051;BME280;74137;50.136;19.040;2024-02-21T18:18:36;98886.27;;;5.27;70.26
84051;BME280;74137;50.136;19.040;2024-02-21T18:21:07;98882.20;;;5.23;70.42
84051;BME280;74137;50.136;19.040;2024-02-21T18:23:35;98878.23;;;5.18;70.49
84051;BME280;74137;50.136;19.040;2024-02-21T18:26:05;98873.81;;;5.14;70.70
84051;BME280;74137;50.136;19.040;2024-02-21T18:28:35;98869.02;;;5.12;70.81
84051;BME280;74137;50.136;19.040;2024-02-21T18:31:04;98863.55;;;5.09;70.85
84051;BME280;74137;50.136;19.040;2024-02-21T18:33:34;98861.45;;;5.04;70.81
84051;BME280;74137;50.136;19.040;2024-02-21T18:36:03;98857.39;;;5.00;70.98
84051;BME280;74137;50.136;19.040;2024-02-21T18:38:32;98852.10;;;4.98;71.01
84051;BME280;74137;50.136;19.040;2024-02-21T18:41:00;98847.12;;;4.95;70.95
84051;BME280;74137;50.136;19.040;2024-02-21T18:43:31;98843.17;;;4.94;71.23
84051;BME280;74137;50.136;19.040;2024-02-21T18:46:00;98841.11;;;4.93;71.42
84051;BME280;74137;50.136;19.040;2024-02-21T18:48:28;98838.03;;;4.92;71.32
84051;BME280;74137;50.136;19.040;2024-02-21T18:51:01;98834.60;;;4.90;71.40
84051;BME280;74137;50.136;19.040;2024-02-21T18:53:30;98832.59;;;4.88;71.38
84051;BME280;74137;50.136;19.040;2024-02-21T18:56:01;98822.98;;;4.84;71.27
84051;BME280;74137;50.136;19.040;2024-02-21T18:58:36;98817.21;;;4.80;71.35
84051;BME280;74137;50.136;19.040;2024-02-21T19:01:04;98812.29;;;4.77;71.41
84051;BME280;74137;50.136;19.040;2024-02-21T19:03:32;98810.23;;;4.76;71.62
84051;BME280;74137;50.136;19.040;2024-02-21T19:06:01;98805.23;;;4.74;71.58
84051;BME280;74137;50.136;19.040;2024-02-21T19:08:30;98802.36;;;4.72;71.56
84051;BME280;74137;50.136;19.040;2024-02-21T19:10:59;98802.60;;;4.70;71.84
84051;BME280;74137;50.136;19.040;2024-02-21T19:13:27;98795.45;;;4.65;71.78
84051;BME280;74137;50.136;19.040;2024-02-21T19:15:55;98796.22;;;4.62;71.97
84051;BME280;74137;50.136;19.040;2024-02-21T19:18:24;98794.05;;;4.59;71.82
84051;BME280;74137;50.136;19.040;2024-02-21T19:20:53;98792.02;;;4.58;71.80
84051;BME280;74137;50.136;19.040;2024-02-21T19:23:23;98790.15;;;4.57;71.77
84051;BME280;74137;50.136;19.040;2024-02-21T19:25:54;98789.80;;;4.57;71.94
84051;BME280;74137;50.136;19.040;2024-02-21T19:28:23;98786.39;;;4.55;71.92
84051;BME280;74137;50.136;19.040;2024-02-21T19:30:51;98787.27;;;4.55;72.08
84051;BME280;74137;50.136;19.040;2024-02-21T19:33:21;98784.69;;;4.54;72.07
84051;BME280;74137;50.136;19.040;2024-02-21T19:35:50;98782.70;;;4.51;71.94
84051;BME280;74137;50.136;19.040;2024-02-21T19:38:18;98782.27;;;4.48;72.09
84051;BME280;74137;50.136;19.040;2024-02-21T19:40:50;98783.52;;;4.46;71.93
84051;BME280;74137;50.136;19.040;2024-02-21T19:43:19;98781.33;;;4.45;72.25
84051;BME280;74137;50.136;19.040;2024-02-21T19:45:48;98775.84;;;4.42;71.78
84051;BME280;74137;50.136;19.040;2024-02-21T19:48:18;98781.20;;;4.38;71.88
84051;BME280;74137;50.136;19.040;2024-02-21T19:50:47;98778.99;;;4.31;71.78
84051;BME280;74137;50.136;19.040;2024-02-21T19:53:15;98781.67;;;4.23;71.85
84051;BME280;74137;50.136;19.040;2024-02-21T19:55:44;98779.30;;;4.16;71.69
84051;BME280;74137;50.136;19.040;2024-02-21T19:58:13;98772.45;;;4.07;71.57
84051;BME280;74137;50.136;19.040;2024-02-21T20:00:44;98770.26;;;4.00;71.81
84051;BME280;74137;50.136;19.040;2024-02-21T20:03:13;98773.61;;;3.92;72.05
84051;BME280;74137;50.136;19.040;2024-02-21T20:05:42;98771.46;;;3.89;72.41
84051;BME280;74137;50.136;19.040;2024-02-21T20:08:12;98766.17;;;3.86;72.31
84051;BME280;74137;50.136;19.040;2024-02-21T20:10:40;98763.31;;;3.83;72.50
84051;BME280;74137;50.136;19.040;2024-02-21T20:13:11;98762.91;;;3.79;72.46
84051;BME280;74137;50.136;19.040;2024-02-21T20:15:43;98759.71;;;3.75;72.62
84051;BME280;74137;50.136;19.040;2024-02-21T20:18:12;98759.30;;;3.71;72.61
84051;BME280;74137;50.136;19.040;2024-02-21T20:20:44;98752.70;;;3.66;72.41
84051;BME280;74137;50.136;19.040;2024-02-21T20:23:12;98755.66;;;3.60;72.65
84051;BME280;74137;50.136;19.040;2024-02-21T20:25:43;98756.66;;;3.55;72.80
84051;BME280;74137;50.136;19.040;2024-02-21T20:28:14;98752.41;;;3.52;72.96
84051;BME280;74137;50.136;19.040;2024-02-21T20:30:45;98746.77;;;3.50;73.04
84051;BME280;74137;50.136;19.040;2024-02-21T20:33:16;98743.91;;;3.46;73.06
84051;BME280;74137;50.136;19.040;2024-02-21T20:35:45;98739.73;;;3.41;73.10
84051;BME280;74137;50.136;19.040;2024-02-21T20:38:17;98736.38;;;3.37;73.16
84051;BME280;74137;50.136;19.040;2024-02-21T20:40:45;98731.66;;;3.32;73.30
84051;BME280;74137;50.136;19.040;2024-02-21T20:43:14;98731.91;;;3.29;73.54
84051;BME280;74137;50.136;19.040;2024-02-21T20:45:42;98730.16;;;3.29;73.72
84051;BME280;74137;50.136;19.040;2024-02-21T20:48:10;98722.88;;;3.30;73.79
84051;BME280;74137;50.136;19.040;2024-02-21T20:50:39;98722.88;;;3.30;73.68
84051;BME280;74137;50.136;19.040;2024-02-21T20:53:07;98721.33;;;3.29;73.67
84051;BME280;74137;50.136;19.040;2024-02-21T20:55:36;98722.98;;;3.26;73.71
84051;BME280;74137;50.136;19.040;2024-02-21T20:58:06;98727.59;;;3.23;73.68
84051;BME280;74137;50.136;19.040;2024-02-21T21:00:35;98730.65;;;3.19;73.52
84051;BME280;74137;50.136;19.040;2024-02-21T21:03:06;98725.71;;;3.15;73.18
84051;BME280;74137;50.136;19.040;2024-02-21T21:05:34;98725.31;;;3.11;73.16
84051;BME280;74137;50.136;19.040;2024-02-21T21:08:04;98721.63;;;3.07;72.88
84051;BME280;74137;50.136;19.040;2024-02-21T21:10:32;98716.17;;;3.03;72.94
84051;BME280;74137;50.136;19.040;2024-02-21T21:13:03;98713.70;;;2.98;72.87
84051;BME280;74137;50.136;19.040;2024-02-21T21:15:35;98707.27;;;2.92;72.75
84051;BME280;74137;50.136;19.040;2024-02-21T21:18:05;98706.67;;;2.89;72.68
84051;BME280;74137;50.136;19.040;2024-02-21T21:20:37;98698.29;;;2.86;72.83
84051;BME280;74137;50.136;19.040;2024-02-21T21:23:10;98693.98;;;2.84;73.19
84051;BME280;74137;50.136;19.040;2024-02-21T21:25:40;98692.48;;;2.82;73.14
84051;BME280;74137;50.136;19.040;2024-02-21T21:28:09;98683.55;;;2.79;73.30
84051;BME280;74137;50.136;19.040;2024-02-21T21:30:37;98676.36;;;2.76;73.18
84051;BME280;74137;50.136;19.040;2024-02-21T21:33:05;98674.34;;;2.73;73.30
84051;BME280;74137;50.136;19.040;2024-02-21T21:35:39;98671.23;;;2.73;73.68
84051;BME280;74137;50.136;19.040;2024-02-21T21:38:07;98668.10;;;2.73;73.89
84051;BME280;74137;50.136;19.040;2024-02-21T21:40:35;98662.57;;;2.73;73.80
84051;BME280;74137;50.136;19.040;2024-02-21T21:43:04;98657.78;;;2.71;74.11
84051;BME280;74137;50.136;19.040;2024-02-21T21:45:33;98653.81;;;2.70;74.17
84051;BME280;74137;50.136;19.040;2024-02-21T21:48:01;98650.38;;;2.69;74.18
84051;BME280;74137;50.136;19.040;2024-02-21T21:50:30;98646.27;;;2.67;73.97
84051;BME280;74137;50.136;19.040;2024-02-21T21:52:59;98639.74;;;2.65;74.00
84051;BME280;74137;50.136;19.040;2024-02-21T21:55:31;98633.85;;;2.65;74.04
84051;BME280;74137;50.136;19.040;2024-02-21T21:57:59;98628.18;;;2.63;73.85
84051;BME280;74137;50.136;19.040;2024-02-21T22:00:28;98623.92;;;2.60;73.93
84051;BME280;74137;50.136;19.040;2024-02-21T22:02:58;98624.71;;;2.57;73.68
84051;BME280;74137;50.136;19.040;2024-02-21T22:05:27;98620.14;;;2.53;73.59
84051;BME280;74137;50.136;19.040;2024-02-21T22:07:55;98619.23;;;2.48;73.34
84051;BME280;74137;50.136;19.040;2024-02-21T22:10:25;98617.77;;;2.45;73.61
84051;BME280;74137;50.136;19.040;2024-02-21T22:12:56;98611.94;;;2.42;73.63
84051;BME280;74137;50.136;19.040;2024-02-21T22:15:24;98609.90;;;2.40;73.90
84051;BME280;74137;50.136;19.040;2024-02-21T22:17:52;98604.24;;;2.39;74.10
84051;BME280;74137;50.136;19.040;2024-02-21T22:20:21;98599.23;;;2.38;74.28
84051;BME280;74137;50.136;19.040;2024-02-21T22:22:53;98594.98;;;2.35;74.23
84051;BME280;74137;50.136;19.040;2024-02-21T22:25:21;98593.79;;;2.28;74.33
84051;BME280;74137;50.136;19.040;2024-02-21T22:27:50;98587.82;;;2.24;74.47
84051;BME280;74137;50.136;19.040;2024-02-21T22:30:18;98584.77;;;2.21;74.65
84051;BME280;74137;50.136;19.040;2024-02-21T22:32:47;98586.77;;;2.18;74.87
84051;BME280;74137;50.136;19.040;2024-02-21T22:35:16;98582.33;;;2.16;74.82
84051;BME280;74137;50.136;19.040;2024-02-21T22:37:45;98579.95;;;2.15;75.02
84051;BME280;74137;50.136;19.040;2024-02-21T22:40:13;98575.66;;;2.13;75.09
84051;BME280;74137;50.136;19.040;2024-02-21T22:42:42;98571.33;;;2.13;75.06
84051;BME280;74137;50.136;19.040;2024-02-21T22:45:11;98565.42;;;2.14;75.21
84051;BME280;74137;50.136;19.040;2024-02-21T22:47:39;98563.38;;;2.13;75.28
84051;BME280;74137;50.136;19.040;2024-02-21T22:50:08;98557.45;;;2.14;75.32
84051;BME280;74137;50.136;19.040;2024-02-21T22:52:37;98558.11;;;2.15;75.31
84051;BME280;74137;50.136;19.040;2024-02-21T22:55:05;98555.36;;;2.14;75.33
84051;BME280;74137;50.136;19.040;2024-02-21T22:57:35;98551.63;;;2.12;75.30
84051;BME280;74137;50.136;19.040;2024-02-21T23:00:05;98544.61;;;2.08;75.33
84051;BME280;74137;50.136;19.040;2024-02-21T23:02:36;98538.92;;;2.07;75.48
84051;BME280;74137;50.136;19.040;2024-02-21T23:05:07;98539.31;;;2.06;75.28
84051;BME280;74137;50.136;19.040;2024-02-21T23:07:37;98533.30;;;2.04;75.50
84051;BME280;74137;50.136;19.040;2024-02-21T23:10:05;98527.60;;;2.03;75.45
84051;BME280;74137;50.136;19.040;2024-02-21T23:12:34;98523.84;;;2.02;75.43
84051;BME280;74137;50.136;19.040;2024-02-21T23:15:04;98523.19;;;2.00;75.03
84051;BME280;74137;50.136;19.040;2024-02-21T23:17:34;98513.58;;;1.97;74.91
84051;BME280;74137;50.136;19.040;2024-02-21T23:20:02;98508.77;;;1.95;75.04
84051;BME280;74137;50.136;19.040;2024-02-21T23:22:35;98510.37;;;1.94;75.05
84051;BME280;74137;50.136;19.040;2024-02-21T23:25:04;98506.25;;;1.93;75.11
84051;BME280;74137;50.136;19.040;2024-02-21T23:27:32;98502.95;;;1.93;75.36
84051;BME280;74137;50.136;19.040;2024-02-21T23:30:01;98500.36;;;1.93;75.41
84051;BME280;74137;50.136;19.040;2024-02-21T23:32:32;98498.36;;;1.90;75.42
84051;BME280;74137;50.136;19.040;2024-02-21T23:35:03;98499.30;;;1.87;75.40
84051;BME280;74137;50.136;19.040;2024-02-21T23:37:33;98499.38;;;1.84;75.41
84051;BME280;74137;50.136;19.040;2024-02-21T23:40:01;98498.38;;;1.82;75.40
84051;BME280;74137;50.136;19.040;2024-02-21T23:42:32;98493.25;;;1.80;75.24
84051;BME280;74137;50.136;19.040;2024-02-21T23:45:01;98493.13;;;1.78;75.31
84051;BME280;74137;50.136;19.040;2024-02-21T23:47:32;98495.41;;;1.77;75.13
84051;BME280;74137;50.136;19.040;2024-02-21T23:50:00;98493.40;;;1.75;75.10
84051;BME280;74137;50.136;19.040;2024-02-21T23:52:29;98488.84;;;1.71;74.86
84051;BME280;74137;50.136;19.040;2024-02-21T23:54:57;98485.80;;;1.67;75.33
84051;BME280;74137;50.136;19.040;2024-02-21T23:57:26;98483.14;;;1.64;75.31
84051;BME280;74137;50.136;19.040;2024-02-21T23:59:54;98483.17;;;1.62;75.33
